Maersk Damietta — A8OU4 — position and weather

sailwx.info

Track history (hours):
 
Tides and Currents Weather Stations Pressure Air Temp Water Temp Dewpoint Dewpoint Depression Visibility Wind Speed Wind Dir Waves Ship Positions

Maersk Damietta

Last reported at 2017-Aug-14 23:59 UTC. Time now 2017-Aug-16 21:41 UTC.
Position N 26°44' W 116°45'.

Length 295 m; draft 10.7 m.

Type: Ship. MMSI: 636091506.

Date/timePositionNaut miles runAvg speedWind from/ knotsBaromVisibWave heightAir tempDewpointWater temp
2017-Aug-14 23:59N 26°44' W 116°45'917.7
2017-Aug-14 23:30N 26°49' W 116°53'1317.7
2017-Aug-14 22:47N 26°57' W 117°04'11017.4
2017-Aug-14 16:27N 28°04' W 118°42'1318.0
2017-Aug-14 15:44N 28°13' W 118°53'417.3
2017-Aug-14 15:30N 28°15' W 118°57'1117.5
2017-Aug-14 14:52N 28°22' W 119°07'617.3
2017-Aug-14 14:30N 28°26' W 119°12'917.4
2017-Aug-14 14:00N 28°31' W 119°20'917.2
2017-Aug-14 13:30N 28°36' W 119°28'2617.5
2017-Aug-14 12:03N 28°52' W 119°51'117.1
2017-Aug-14 11:59N 28°53' W 119°52'817.5
2017-Aug-14 11:30N 28°58' W 119°59'917.5
2017-Aug-14 11:00N 29°03' W 120°07'917.6
2017-Aug-14 10:30N 29°09' W 120°15'917.5
2017-Aug-14 10:00N 29°14' W 120°23'917.4
2017-Aug-14 09:30N 29°19' W 120°31'917.5
2017-Aug-14 09:00N 29°25' W 120°39'917.5
2017-Aug-14 08:30N 29°30' W 120°47'1017.6
2017-Aug-14 07:58N 29°36' W 120°55'917.4
2017-Aug-14 07:27N 29°42' W 121°03'817.3
2017-Aug-14 07:00N 29°46' W 121°10'917.3
2017-Aug-14 06:30N 29°52' W 121°18'917.6
2017-Aug-14 06:00N 29°57' W 121°26'4232.0
2017-Aug-14 06:00N 29°54' W 121°24'1225.1 360 / 171016.510.8 18.016.3
2017-Aug-14 05:30N 30°02' W 121°34'917.5
2017-Aug-14 05:00N 30°08' W 121°42'917.4
2017-Aug-14 04:30N 30°13' W 121°50'917.4
2017-Aug-14 04:00N 30°19' W 121°58'917.5
2017-Aug-14 03:30N 30°24' W 122°06'917.4
2017-Aug-14 03:00N 30°30' W 122°14'917.6
2017-Aug-14 02:30N 30°35' W 122°22'917.4
2017-Aug-14 02:00N 30°40' W 122°30'917.4
2017-Aug-14 01:30N 30°46' W 122°38'917.7
2017-Aug-14 01:00N 30°51' W 122°46'1117.5
2017-Aug-14 00:21N 30°58' W 122°57'717.5
2017-Aug-13 23:57N 31°02' W 123°03'917.6
2017-Aug-13 23:27N 31°08' W 123°11'817.7
2017-Aug-13 23:00N 31°13' W 123°18'917.5
2017-Aug-13 22:29N 31°18' W 123°27'917.5
2017-Aug-13 21:59N 31°24' W 123°35'1017.4
2017-Aug-13 21:26N 31°29' W 123°44'717.4
2017-Aug-13 21:00N 31°34' W 123°51'1117.7
2017-Aug-13 20:25N 31°40' W 124°01'717.5
2017-Aug-13 20:00N 31°45' W 124°07'2717.4
2017-Aug-13 18:28N 32°01' W 124°32'817.5
2017-Aug-13 18:00N 32°06' W 124°40'917.5
2017-Aug-13 17:30N 32°11' W 124°48'917.4
2017-Aug-13 17:00N 32°16' W 124°56'1117.4
2017-Aug-13 16:24N 32°22' W 125°06'817.5
2017-Aug-13 15:56N 32°27' W 125°14'817.5
2017-Aug-13 15:30N 32°32' W 125°21'917.6
2017-Aug-13 15:00N 32°37' W 125°29'917.6
2017-Aug-13 14:29N 32°43' W 125°38'817.4
2017-Aug-13 14:00N 32°47' W 125°46'917.3
2017-Aug-13 13:30N 32°53' W 125°55'917.5
2017-Aug-13 13:00N 32°58' W 126°03'917.5
2017-Aug-13 12:30N 33°03' W 126°11'917.6
2017-Aug-13 12:00N 33°08' W 126°20'1817.6
2017-Aug-13 10:58N 33°19' W 126°37'817.6
2017-Aug-13 10:30N 33°24' W 126°45'1917.4
2017-Aug-13 09:24N 33°35' W 127°04'917.6
2017-Aug-13 08:53N 33°40' W 127°13'8917.5
2017-Aug-13 03:47N 34°32' W 128°41'1217.4
2017-Aug-13 03:05N 34°38' W 128°53'617.2
2017-Aug-13 02:45N 34°42' W 128°59'46217.3
2017-Aug-12 00:00N 38°48' W 137°06'42117.5 180 / 41022.027.0 22.017.2
2017-Aug-11 00:00N 42°00' W 145°18'10617.7 200 / 131018.010.8 21.017.8
2017-Aug-10 18:00N 42°42' W 147°30'21117.6 200 / 161016.0 2.2 18.014.620.0
2017-Aug-10 06:00N 44°00' W 152°00'10717.9 180 / 231011.0 1.1 16.012.4
2017-Aug-10 00:00N 44°30' W 154°24'   180 / 201009.0 0.3 16.014.3
2017-Aug-07 00:00N 47°18' E 175°42'10617.7 1025.0 2.2 21.017.8
2017-Aug-06 18:00N 47°12' E 173°06'52017.3 100 / 61024.0 0.1 16.015.114.0
2017-Aug-05 12:00N 46°00' E 160°36'10317.2 110 / 221015.0 0.0 16.014.6
2017-Aug-05 06:00N 45°36' E 158°12'10617.6 090 / 151012.0 16.014.1
2017-Aug-05 00:00N 45°06' E 155°48'   100 / 121011.8 2.2 16.514.8
Track history (hours):
 
Tides and Currents Weather Stations Pressure Air Temp Water Temp Dewpoint Dewpoint Depression Visibility Wind Speed Wind Dir Waves Ship Positions

Maersk Damietta

Last reported at 2017-Aug-14 23:59 UTC. Time now 2017-Aug-16 21:41 UTC.
Position N 26°44' W 116°45'.

Length 295 m; draft 10.7 m.

Type: Ship. MMSI: 636091506.

Date/timePositionNaut miles runAvg speedWind from/ knotsBaromVisibWave heightAir tempDewpointWater temp
2017-Aug-14 23:59N 26°44' W 116°45'917.7
2017-Aug-14 23:30N 26°49' W 116°53'1317.7
2017-Aug-14 22:47N 26°57' W 117°04'11017.4
2017-Aug-14 16:27N 28°04' W 118°42'1318.0
2017-Aug-14 15:44N 28°13' W 118°53'417.3
2017-Aug-14 15:30N 28°15' W 118°57'1117.5
2017-Aug-14 14:52N 28°22' W 119°07'617.3
2017-Aug-14 14:30N 28°26' W 119°12'917.4
2017-Aug-14 14:00N 28°31' W 119°20'917.2
2017-Aug-14 13:30N 28°36' W 119°28'2617.5
2017-Aug-14 12:03N 28°52' W 119°51'117.1
2017-Aug-14 11:59N 28°53' W 119°52'817.5
2017-Aug-14 11:30N 28°58' W 119°59'917.5
2017-Aug-14 11:00N 29°03' W 120°07'917.6
2017-Aug-14 10:30N 29°09' W 120°15'917.5
2017-Aug-14 10:00N 29°14' W 120°23'917.4
2017-Aug-14 09:30N 29°19' W 120°31'917.5
2017-Aug-14 09:00N 29°25' W 120°39'917.5
2017-Aug-14 08:30N 29°30' W 120°47'1017.6
2017-Aug-14 07:58N 29°36' W 120°55'917.4
2017-Aug-14 07:27N 29°42' W 121°03'817.3
2017-Aug-14 07:00N 29°46' W 121°10'917.3
2017-Aug-14 06:30N 29°52' W 121°18'917.6
2017-Aug-14 06:00N 29°57' W 121°26'4232.0
2017-Aug-14 06:00N 29°54' W 121°24'1225.1 360 / 171016.510.8 18.016.3
2017-Aug-14 05:30N 30°02' W 121°34'917.5
2017-Aug-14 05:00N 30°08' W 121°42'917.4
2017-Aug-14 04:30N 30°13' W 121°50'917.4
2017-Aug-14 04:00N 30°19' W 121°58'917.5
2017-Aug-14 03:30N 30°24' W 122°06'917.4
2017-Aug-14 03:00N 30°30' W 122°14'917.6
2017-Aug-14 02:30N 30°35' W 122°22'917.4
2017-Aug-14 02:00N 30°40' W 122°30'917.4
2017-Aug-14 01:30N 30°46' W 122°38'917.7
2017-Aug-14 01:00N 30°51' W 122°46'1117.5
2017-Aug-14 00:21N 30°58' W 122°57'717.5
2017-Aug-13 23:57N 31°02' W 123°03'917.6
2017-Aug-13 23:27N 31°08' W 123°11'817.7
2017-Aug-13 23:00N 31°13' W 123°18'917.5
2017-Aug-13 22:29N 31°18' W 123°27'917.5
2017-Aug-13 21:59N 31°24' W 123°35'1017.4
2017-Aug-13 21:26N 31°29' W 123°44'717.4
2017-Aug-13 21:00N 31°34' W 123°51'1117.7
2017-Aug-13 20:25N 31°40' W 124°01'717.5
2017-Aug-13 20:00N 31°45' W 124°07'2717.4
2017-Aug-13 18:28N 32°01' W 124°32'817.5
2017-Aug-13 18:00N 32°06' W 124°40'917.5
2017-Aug-13 17:30N 32°11' W 124°48'917.4
2017-Aug-13 17:00N 32°16' W 124°56'1117.4
2017-Aug-13 16:24N 32°22' W 125°06'817.5
2017-Aug-13 15:56N 32°27' W 125°14'817.5
2017-Aug-13 15:30N 32°32' W 125°21'917.6
2017-Aug-13 15:00N 32°37' W 125°29'917.6
2017-Aug-13 14:29N 32°43' W 125°38'817.4
2017-Aug-13 14:00N 32°47' W 125°46'917.3
2017-Aug-13 13:30N 32°53' W 125°55'917.5
2017-Aug-13 13:00N 32°58' W 126°03'917.5
2017-Aug-13 12:30N 33°03' W 126°11'917.6
2017-Aug-13 12:00N 33°08' W 126°20'1817.6
2017-Aug-13 10:58N 33°19' W 126°37'817.6
2017-Aug-13 10:30N 33°24' W 126°45'1917.4
2017-Aug-13 09:24N 33°35' W 127°04'917.6
2017-Aug-13 08:53N 33°40' W 127°13'8917.5
2017-Aug-13 03:47N 34°32' W 128°41'1217.4
2017-Aug-13 03:05N 34°38' W 128°53'617.2
2017-Aug-13 02:45N 34°42' W 128°59'46217.3
2017-Aug-12 00:00N 38°48' W 137°06'42117.5 180 / 41022.027.0 22.017.2
2017-Aug-11 00:00N 42°00' W 145°18'10617.7 200 / 131018.010.8 21.017.8
2017-Aug-10 18:00N 42°42' W 147°30'21117.6 200 / 161016.0 2.2 18.014.620.0
2017-Aug-10 06:00N 44°00' W 152°00'10717.9 180 / 231011.0 1.1 16.012.4
2017-Aug-10 00:00N 44°30' W 154°24'   180 / 201009.0 0.3 16.014.3
2017-Aug-07 00:00N 47°18' E 175°42'10617.7 1025.0 2.2 21.017.8
2017-Aug-06 18:00N 47°12' E 173°06'52017.3 100 / 61024.0 0.1 16.015.114.0
2017-Aug-05 12:00N 46°00' E 160°36'10317.2 110 / 221015.0 0.0 16.014.6
2017-Aug-05 06:00N 45°36' E 158°12'10617.6 090 / 151012.0 16.014.1
2017-Aug-05 00:00N 45°06' E 155°48'   100 / 121011.8 2.2 16.514.8

Dump ship's entire track history